Aktuální počasí v Tlučné 

Teplota 19.9 °C
Minimální teplota 7.9 °C Maximální teplota 27.7 °C
Teplota rosného bodu 9.9 °C Pocitová teplota 19.9 °C
Tlak 1011.8 hPa
Směr a rychlost větru  0 m/s
» 0.8 m/s
vlhkost 52.4 %
Teplota 0.0  mm/h
SlunceUV6.22 dnes zítra
↑ 05:11 ↑ 05:10
↓ 20:56 ↓ 20:57
   
Měsíc dnes zítra
↑ 04:13 ↑ 04:45
↓ 17:44 ↓ 19:03
   
  LKLN Metar
  LKLN Metar
2017/05/23 18:00
LKLN 231800Z AUTO VRB02KT 9999 SCT190 22/09 Q1017
Rychlost a směr větru Proměnlivý
3.7 km/h
--
10 km
32805.1 ft
Polojasno (5791 m)
Teplota 22 °C
Rosný bod 9°C
 
Tlak 1017 hPa
762.8 mmHg
 
  YR.no meteogram
  YR.no meteogram
Meteogram YR.no
  IN-Pocasi.cz
  IN-Pocasi.cz
In-Pocasi logo




  PocasiIdnes     CHMI     MeteoPress     Radar     Radar2  


  Valid XHTML 1.0 Transitional  


Provozni a servisni denik

Popis

ČKD / FAQ